createdAt,value
2023-03-04T00:00:34.025Z,97906.50
2023-03-04T00:03:19.652Z,97905.03
2023-03-04T00:05:47.787Z,97899.39
2023-03-04T00:08:15.682Z,97894.95
2023-03-04T00:10:43.756Z,97895.66
2023-03-04T00:13:11.711Z,97893.63
2023-03-04T00:15:39.778Z,97890.42
2023-03-04T00:18:07.729Z,97894.42
2023-03-04T00:20:35.598Z,97891.63
2023-03-04T00:23:03.544Z,97886.04
2023-03-04T00:25:31.631Z,97881.23
2023-03-04T00:27:59.742Z,97874.06
2023-03-04T00:30:27.660Z,97868.21
2023-03-04T00:32:55.731Z,97864.30
2023-03-04T00:35:25.251Z,97865.13
2023-03-04T00:37:54.248Z,97864.12
2023-03-04T00:40:22.273Z,97859.65
2023-03-04T00:42:50.283Z,97860.14
2023-03-04T00:45:18.416Z,97859.70
2023-03-04T00:47:47.232Z,97860.77
2023-03-04T00:50:15.557Z,97851.69
2023-03-04T00:52:43.584Z,97850.59
2023-03-04T00:55:11.616Z,97841.52
2023-03-04T00:57:39.839Z,97842.37
2023-03-04T01:00:08.827Z,97834.40
2023-03-04T01:02:36.999Z,97831.84
2023-03-04T01:05:05.507Z,97825.18
2023-03-04T01:07:34.416Z,97817.43
2023-03-04T01:10:02.552Z,97805.27
2023-03-04T01:12:30.519Z,97794.41
2023-03-04T01:15:00.272Z,97791.85
2023-03-04T01:17:28.224Z,97785.34
2023-03-04T01:19:56.213Z,97784.07
2023-03-04T01:22:24.119Z,97779.22
2023-03-04T01:24:52.187Z,97778.95
2023-03-04T01:27:20.620Z,97769.72
2023-03-04T01:29:48.522Z,97766.85
2023-03-04T01:32:16.518Z,97769.02
2023-03-04T01:34:44.460Z,97767.02
2023-03-04T01:37:14.127Z,97762.27
2023-03-04T01:39:42.179Z,97754.38
2023-03-04T01:42:34.541Z,97752.70
2023-03-04T01:45:03.880Z,97749.68
2023-03-04T01:47:35.061Z,97753.77
2023-03-04T01:50:07.351Z,97751.65
2023-03-04T01:52:35.485Z,97746.40
2023-03-04T01:55:14.744Z,97743.80
2023-03-04T01:57:42.713Z,97746.23
2023-03-04T02:00:31.493Z,97738.92
2023-03-04T02:03:09.572Z,97729.74
2023-03-04T02:05:41.482Z,97733.61
2023-03-04T02:08:10.725Z,97728.94
2023-03-04T02:10:39.494Z,97728.36
2023-03-04T02:13:07.862Z,97730.85
2023-03-04T02:15:35.863Z,97728.54
2023-03-04T02:18:14.673Z,97724.23
2023-03-04T02:20:54.833Z,97729.52
2023-03-04T02:23:37.910Z,97725.15
2023-03-04T02:26:18.163Z,97724.02
2023-03-04T02:28:49.597Z,97720.59
2023-03-04T02:31:39.259Z,97714.07
2023-03-04T02:34:20.353Z,97711.48
2023-03-04T02:36:50.526Z,97704.66
2023-03-04T02:39:21.519Z,97701.90
2023-03-04T02:41:55.304Z,97695.70
2023-03-04T02:44:25.324Z,97696.08
2023-03-04T02:46:53.886Z,97685.98
2023-03-04T02:49:23.113Z,97673.65
2023-03-04T02:52:00.961Z,97674.00
2023-03-04T02:54:29.453Z,97675.04
2023-03-04T02:57:01.365Z,97673.70
2023-03-04T02:59:30.103Z,97667.98
2023-03-04T03:01:58.239Z,97671.38
2023-03-04T03:04:27.125Z,97665.30
2023-03-04T03:06:55.489Z,97667.86
2023-03-04T03:09:23.593Z,97664.45
2023-03-04T03:11:51.822Z,97664.16
2023-03-04T03:14:21.328Z,97662.94
2023-03-04T03:16:49.338Z,97664.63
2023-03-04T03:19:17.317Z,97661.86
2023-03-04T03:21:46.152Z,97655.84
2023-03-04T03:24:14.104Z,97655.23
2023-03-04T03:26:42.099Z,97650.95
2023-03-04T03:29:10.080Z,97658.23
2023-03-04T03:31:38.035Z,97663.98
2023-03-04T03:34:06.027Z,97657.21
2023-03-04T03:36:34.234Z,97656.61
2023-03-04T03:39:02.467Z,97657.75
2023-03-04T03:41:30.356Z,97654.05
2023-03-04T03:43:58.263Z,97653.36
2023-03-04T03:46:28.293Z,97657.90
2023-03-04T03:48:56.160Z,97649.50
2023-03-04T03:51:24.329Z,97650.66
2023-03-04T03:53:52.255Z,97651.71
2023-03-04T03:56:20.101Z,97645.07
2023-03-04T03:58:48.061Z,97644.77
2023-03-04T04:01:16.137Z,97641.69
2023-03-04T04:03:44.070Z,97644.13
2023-03-04T04:06:12.005Z,97643.79
2023-03-04T04:08:40.162Z,97647.73
2023-03-04T04:11:10.943Z,97641.05
2023-03-04T04:13:39.757Z,97644.11
2023-03-04T04:16:08.456Z,97645.33
2023-03-04T04:18:36.969Z,97648.15
2023-03-04T04:21:05.335Z,97646.14
2023-03-04T04:23:33.296Z,97643.02
2023-03-04T04:26:01.267Z,97647.64
2023-03-04T04:28:29.300Z,97643.18
2023-03-04T04:30:57.223Z,97638.36
2023-03-04T04:33:25.253Z,97639.73
2023-03-04T04:35:53.513Z,97636.96
2023-03-04T04:38:21.485Z,97637.73
2023-03-04T04:40:49.482Z,97636.91
2023-03-04T04:43:17.368Z,97635.13
2023-03-04T04:45:45.258Z,97630.90
2023-03-04T04:48:13.233Z,97634.79
2023-03-04T04:50:41.205Z,97627.85
2023-03-04T04:53:13.585Z,97623.81
2023-03-04T04:55:41.455Z,97623.88
2023-03-04T04:58:09.527Z,97622.90
2023-03-04T05:00:37.548Z,97623.52
2023-03-04T05:03:05.496Z,97623.15
2023-03-04T05:05:34.075Z,97623.60
2023-03-04T05:08:02.089Z,97630.51
2023-03-04T05:10:30.070Z,97621.14
2023-03-04T05:12:58.161Z,97626.45
2023-03-04T05:15:26.209Z,97627.71
2023-03-04T05:17:54.075Z,97627.71
2023-03-04T05:20:23.994Z,97618.95
2023-03-04T05:22:52.410Z,97614.34
2023-03-04T05:25:20.331Z,97615.35
2023-03-04T05:27:48.252Z,97619.16
2023-03-04T05:30:16.213Z,97627.38
2023-03-04T05:32:44.145Z,97631.64
2023-03-04T05:35:12.176Z,97630.02
2023-03-04T05:37:40.168Z,97631.20
2023-03-04T05:40:09.436Z,97625.41
2023-03-04T05:42:37.337Z,97623.66
2023-03-04T05:45:05.729Z,97617.48
2023-03-04T05:47:33.682Z,97620.84
2023-03-04T05:50:01.909Z,97618.28
2023-03-04T05:52:29.985Z,97613.17
2023-03-04T05:54:58.151Z,97610.05
2023-03-04T05:57:26.224Z,97617.73
2023-03-04T06:04:47.801Z,97619.42
2023-03-04T06:07:15.928Z,97621.48
2023-03-04T06:09:45.302Z,97622.56
2023-03-04T06:12:13.325Z,97626.13
2023-03-04T06:14:41.320Z,97624.11
2023-03-04T06:17:09.224Z,97625.63
2023-03-04T06:19:38.224Z,97620.77
2023-03-04T06:22:06.099Z,97632.17
2023-03-04T06:24:34.648Z,97630.48
2023-03-04T06:27:03.233Z,97626.05
2023-03-04T06:29:31.278Z,97613.17
2023-03-04T06:31:59.441Z,97619.54
2023-03-04T06:38:37.936Z,97610.91
2023-03-04T06:41:08.810Z,97606.55
2023-03-04T06:43:37.323Z,97617.20
2023-03-04T06:46:07.086Z,97617.89
2023-03-04T06:48:35.371Z,97615.67
2023-03-04T06:51:08.430Z,97620.41
2023-03-04T06:53:36.454Z,97641.67
2023-03-04T06:56:05.454Z,97638.23
2023-03-04T06:58:33.576Z,97629.80
2023-03-04T07:01:19.314Z,97630.65
2023-03-04T07:03:49.029Z,97647.73
2023-03-04T07:06:19.715Z,97637.38
2023-03-04T07:08:48.020Z,97639.36
2023-03-04T07:11:16.600Z,97637.77
2023-03-04T07:13:45.183Z,97640.20
2023-03-04T07:16:18.072Z,97645.12
2023-03-04T07:18:47.515Z,97638.95
2023-03-04T07:21:17.076Z,97640.07
2023-03-04T07:23:45.471Z,97641.83
2023-03-04T07:26:13.633Z,97644.08
2023-03-04T07:28:42.986Z,97648.48
2023-03-04T07:31:30.455Z,97639.92
2023-03-04T07:34:04.158Z,97634.71
2023-03-04T07:36:33.833Z,97636.71
2023-03-04T07:39:01.746Z,97635.17
2023-03-04T07:41:30.224Z,97646.44
2023-03-04T07:43:59.386Z,97641.52
2023-03-04T07:46:27.438Z,97633.13
2023-03-04T07:48:57.059Z,97642.27
2023-03-04T07:51:26.651Z,97644.44
2023-03-04T07:54:20.541Z,97638.67
2023-03-04T07:56:48.861Z,97639.84
2023-03-04T07:59:16.854Z,97644.97
2023-03-04T08:02:36.254Z,97640.82
2023-03-04T08:05:04.499Z,97643.34
2023-03-04T08:07:32.931Z,97644.41
2023-03-04T08:10:00.944Z,97650.33
2023-03-04T08:12:29.848Z,97648.98
2023-03-04T08:14:57.774Z,97652.39
2023-03-04T08:17:26.424Z,97655.71
2023-03-04T08:19:55.036Z,97655.20
2023-03-04T08:22:23.289Z,97654.98
2023-03-04T08:24:51.205Z,97657.14
2023-03-04T08:27:28.379Z,97660.77
2023-03-04T08:29:56.520Z,97659.70
2023-03-04T08:32:25.182Z,97666.09
2023-03-04T08:35:20.452Z,97661.38
2023-03-04T08:37:48.869Z,97658.80
2023-03-04T08:40:17.813Z,97663.02
2023-03-04T08:42:45.720Z,97662.34
2023-03-04T08:46:30.864Z,97661.19
2023-03-04T08:48:59.041Z,97670.02
2023-03-04T08:51:47.284Z,97672.35
2023-03-04T08:54:15.446Z,97673.00
2023-03-04T08:56:43.408Z,97670.23
2023-03-04T08:59:11.661Z,97676.44
2023-03-04T09:01:39.736Z,97668.40
2023-03-04T09:04:07.711Z,97662.59
2023-03-04T09:06:36.220Z,97660.04
2023-03-04T09:09:06.531Z,97658.05
2023-03-04T09:11:35.515Z,97663.59
2023-03-04T09:14:03.435Z,97653.27
2023-03-04T09:16:31.326Z,97658.55
2023-03-04T09:19:01.116Z,97654.23
2023-03-04T09:21:29.304Z,97658.91
2023-03-04T09:23:57.500Z,97653.59
2023-03-04T09:26:28.896Z,97665.94
2023-03-04T09:28:59.974Z,97659.60
2023-03-04T09:31:29.441Z,97668.16
2023-03-04T09:34:00.613Z,97662.55
2023-03-04T09:36:28.609Z,97654.98
2023-03-04T09:39:03.530Z,97659.08
2023-03-04T09:41:39.356Z,97659.23
2023-03-04T09:44:29.825Z,97662.34
2023-03-04T09:47:02.382Z,97651.34
2023-03-04T09:49:31.408Z,97652.90
2023-03-04T09:52:08.764Z,97651.63
2023-03-04T09:55:18.146Z,97649.15
2023-03-04T09:57:54.476Z,97652.21
2023-03-04T10:00:35.479Z,97648.33
2023-03-04T10:03:12.691Z,97645.84
2023-03-04T10:05:56.475Z,97650.48
2023-03-04T10:08:37.138Z,97648.56
2023-03-04T10:11:13.695Z,97650.80
2023-03-04T10:14:19.791Z,97643.67
2023-03-04T10:17:16.101Z,97643.91
2023-03-04T10:19:56.897Z,97643.41
2023-03-04T10:22:39.199Z,97639.31
2023-03-04T10:25:20.533Z,97638.23
2023-03-04T10:27:54.846Z,97631.46
2023-03-04T10:31:02.012Z,97631.85
2023-03-04T10:33:32.591Z,97629.34
2023-03-04T10:36:30.896Z,97625.41
2023-03-04T10:39:02.343Z,97615.55
2023-03-04T10:41:31.870Z,97618.10
2023-03-04T10:43:59.882Z,97622.59
2023-03-04T10:46:28.029Z,97612.61
2023-03-04T10:48:56.394Z,97609.52
2023-03-04T10:51:29.862Z,97611.65
2023-03-04T10:54:31.566Z,97607.46
2023-03-04T10:57:04.972Z,97599.55
2023-03-04T10:59:55.945Z,97593.05
2023-03-04T11:02:31.857Z,97598.71
2023-03-04T11:05:15.041Z,97596.65
2023-03-04T11:07:55.829Z,97595.45
2023-03-04T11:10:28.931Z,97597.88
2023-03-04T11:13:24.718Z,97593.40
2023-03-04T11:15:58.452Z,97595.11
2023-03-04T11:18:49.462Z,97591.93
2023-03-04T11:21:26.936Z,97586.11
2023-03-04T11:24:02.281Z,97586.63
2023-03-04T11:26:30.714Z,97581.36
2023-03-04T11:29:24.210Z,97577.70
2023-03-04T11:37:00.207Z,97566.20
2023-03-04T11:39:38.283Z,97562.98
2023-03-04T11:42:21.433Z,97562.23
2023-03-04T11:44:49.784Z,97558.28
2023-03-04T11:47:55.723Z,97557.83
2023-03-04T11:50:39.299Z,97557.48
2023-03-04T11:53:22.987Z,97555.98
2023-03-04T11:56:14.039Z,97560.40
2023-03-04T11:59:07.095Z,97553.45
2023-03-04T12:02:11.050Z,97552.93
2023-03-04T12:05:03.504Z,97549.05
2023-03-04T12:08:08.617Z,97548.02
2023-03-04T12:10:52.336Z,97542.69
2023-03-04T12:13:31.288Z,97546.34
2023-03-04T12:16:14.478Z,97539.07
2023-03-04T12:18:59.847Z,97539.04
2023-03-04T12:21:43.319Z,97540.36
2023-03-04T12:24:59.174Z,97543.80
2023-03-04T12:27:33.166Z,97538.84
2023-03-04T12:30:07.817Z,97539.50
2023-03-04T12:32:49.899Z,97540.46
2023-03-04T12:35:29.376Z,97540.81
2023-03-04T12:38:16.142Z,97532.57
2023-03-04T12:40:56.286Z,97530.73
2023-03-04T12:43:39.585Z,97525.02
2023-03-04T12:46:22.725Z,97522.98
2023-03-04T12:48:56.773Z,97518.84
2023-03-04T12:51:39.796Z,97512.61
2023-03-04T12:54:37.688Z,97505.73
2023-03-04T12:57:17.407Z,97522.61
2023-03-04T12:59:54.850Z,97512.55
2023-03-04T13:02:34.488Z,97514.58
2023-03-04T13:05:27.770Z,97513.72
2023-03-04T13:08:23.701Z,97507.95
2023-03-04T13:10:52.724Z,97506.70
2023-03-04T13:14:00.462Z,97504.46
2023-03-04T13:16:50.673Z,97494.48
2023-03-04T13:19:49.549Z,97500.56
2023-03-04T13:22:29.971Z,97495.77
2023-03-04T13:25:00.407Z,97494.05
2023-03-04T13:28:05.555Z,97490.66
2023-03-04T13:30:38.072Z,97492.26
2023-03-04T13:33:08.819Z,97486.65
2023-03-04T13:36:02.147Z,97491.33
2023-03-04T13:38:39.436Z,97491.00
2023-03-04T13:41:27.614Z,97488.94
2023-03-04T13:43:56.885Z,97487.08
2023-03-04T13:46:24.769Z,97485.59
2023-03-04T13:48:52.757Z,97486.85
2023-03-04T13:51:45.138Z,97492.89
2023-03-04T13:54:31.257Z,97488.94
2023-03-04T13:57:02.955Z,97482.73
2023-03-04T13:59:46.625Z,97480.57
2023-03-04T14:02:25.699Z,97477.64
2023-03-04T14:04:53.791Z,97478.92
2023-03-04T14:07:29.837Z,97480.83
2023-03-04T14:10:23.915Z,97479.84
2023-03-04T14:12:58.233Z,97473.91
2023-03-04T14:15:32.025Z,97473.16
2023-03-04T14:18:02.824Z,97468.36
2023-03-04T14:20:33.424Z,97467.53
2023-03-04T14:23:04.483Z,97465.80
2023-03-04T14:25:36.688Z,97459.89
2023-03-04T14:28:17.364Z,97458.39
2023-03-04T14:30:57.204Z,97463.90
2023-03-04T14:33:30.701Z,97464.19
2023-03-04T14:36:02.301Z,97463.64
2023-03-04T14:38:34.412Z,97465.42
2023-03-04T14:41:08.123Z,97476.27
2023-03-04T14:43:51.033Z,97468.13
2023-03-04T14:46:22.155Z,97465.27
2023-03-04T14:48:53.179Z,97462.02
2023-03-04T14:51:48.111Z,97463.41
2023-03-04T14:54:41.231Z,97462.23
2023-03-04T14:57:26.935Z,97460.21
2023-03-04T14:59:54.900Z,97460.79
2023-03-04T15:02:40.064Z,97460.23
2023-03-04T15:05:16.727Z,97457.64
2023-03-04T15:07:53.285Z,97451.89
2023-03-04T15:10:25.881Z,97451.81
2023-03-04T15:12:57.077Z,97451.23
2023-03-04T15:15:49.182Z,97445.71
2023-03-04T15:18:26.649Z,97449.77
2023-03-04T15:21:05.456Z,97448.45
2023-03-04T15:23:33.957Z,97443.79
2023-03-04T15:26:05.995Z,97442.36
2023-03-04T15:28:36.933Z,97447.95
2023-03-04T15:31:05.984Z,97445.94
2023-03-04T15:33:34.292Z,97446.49
2023-03-04T15:36:03.164Z,97444.57
2023-03-04T15:38:31.412Z,97446.36
2023-03-04T15:40:59.745Z,97448.57
2023-03-04T15:43:27.965Z,97451.02
2023-03-04T15:45:55.926Z,97450.40
2023-03-04T15:48:23.847Z,97453.77
2023-03-04T15:50:57.544Z,97446.77
2023-03-04T15:53:36.926Z,97439.92
2023-03-04T15:56:08.397Z,97440.06
2023-03-04T15:58:36.294Z,97442.65
2023-03-04T16:01:04.304Z,97446.25
2023-03-04T16:03:32.612Z,97441.38
2023-03-04T16:06:00.670Z,97439.10
2023-03-04T16:08:28.579Z,97439.95
2023-03-04T16:10:56.560Z,97438.02
2023-03-04T16:13:25.087Z,97433.42
2023-03-04T16:15:53.244Z,97438.95
2023-03-04T16:18:21.259Z,97439.02
2023-03-04T16:20:51.062Z,97443.78
2023-03-04T16:23:23.938Z,97447.18
2023-03-04T16:25:55.853Z,97446.94
2023-03-04T16:28:23.903Z,97450.11
2023-03-04T16:30:51.847Z,97448.99
2023-03-04T16:33:19.836Z,97452.23
2023-03-04T16:35:48.258Z,97447.63
2023-03-04T16:38:39.785Z,97446.15
2023-03-04T16:41:15.530Z,97446.91
2023-03-04T16:43:44.575Z,97452.70
2023-03-04T16:46:13.976Z,97450.76
2023-03-04T16:48:42.127Z,97454.97
2023-03-04T16:51:21.919Z,97457.33
2023-03-04T16:53:56.361Z,97462.49
2023-03-04T16:56:30.001Z,97466.83
2023-03-04T16:58:57.960Z,97464.73
2023-03-04T17:01:28.177Z,97459.30
2023-03-04T17:03:56.801Z,97457.44
2023-03-04T17:06:25.067Z,97460.30
2023-03-04T17:08:53.720Z,97460.02
2023-03-04T17:11:23.762Z,97455.61
2023-03-04T17:13:52.651Z,97463.18
2023-03-04T17:16:20.796Z,97458.11
2023-03-04T17:18:49.602Z,97463.30
2023-03-04T17:21:21.435Z,97463.23
2023-03-04T17:23:50.026Z,97465.40
2023-03-04T17:26:21.235Z,97464.42
2023-03-04T17:28:51.020Z,97454.33
2023-03-04T17:31:20.990Z,97453.02
2023-03-04T17:33:49.793Z,97448.94
2023-03-04T17:36:19.578Z,97450.07
2023-03-04T17:39:12.615Z,97452.48
2023-03-04T17:42:17.409Z,97453.97
2023-03-04T17:44:46.756Z,97454.86
2023-03-04T17:47:16.806Z,97456.77
2023-03-04T17:49:45.472Z,97457.91
2023-03-04T17:52:13.659Z,97462.46
2023-03-04T17:54:42.022Z,97457.95
2023-03-04T17:57:10.593Z,97465.06
2023-03-04T17:59:38.872Z,97458.52
2023-03-04T18:02:07.289Z,97458.00
2023-03-04T18:04:35.787Z,97464.52
2023-03-04T18:08:22.168Z,97462.64
2023-03-04T18:10:52.551Z,97465.80
2023-03-04T18:13:21.511Z,97466.09
2023-03-04T18:16:19.442Z,97462.23
2023-03-04T18:18:47.929Z,97463.36
2023-03-04T18:21:17.665Z,97465.67
2023-03-04T18:23:46.744Z,97461.65
2023-03-04T18:26:41.087Z,97472.34
2023-03-04T18:29:09.193Z,97466.30
2023-03-04T18:31:37.283Z,97459.37
2023-03-04T18:34:05.360Z,97458.50
2023-03-04T18:37:24.337Z,97465.56
2023-03-04T18:39:54.935Z,97457.93
2023-03-04T18:42:23.018Z,97455.65
2023-03-04T18:44:52.016Z,97448.37
2023-03-04T18:47:21.809Z,97434.80
2023-03-04T18:49:50.106Z,97422.72
2023-03-04T18:52:18.059Z,97418.77
2023-03-04T18:54:45.991Z,97424.23
2023-03-04T18:57:16.976Z,97428.84
2023-03-04T18:59:47.606Z,97435.19
2023-03-04T19:02:31.537Z,97441.61
2023-03-04T19:05:05.753Z,97445.43
2023-03-04T19:07:33.700Z,97445.61
2023-03-04T19:10:06.412Z,97448.68
2023-03-04T19:12:34.381Z,97447.52
2023-03-04T19:15:03.062Z,97447.67
2023-03-04T19:17:32.777Z,97447.41
2023-03-04T19:20:00.837Z,97446.14
2023-03-04T19:22:28.947Z,97446.04
2023-03-04T19:24:57.128Z,97449.41
2023-03-04T19:27:25.780Z,97448.04
2023-03-04T19:29:53.929Z,97445.50
2023-03-04T19:32:22.035Z,97448.47
2023-03-04T19:34:50.058Z,97452.52
2023-03-04T19:37:18.297Z,97453.93
2023-03-04T19:39:46.704Z,97451.50
2023-03-04T19:42:15.607Z,97448.02
2023-03-04T19:44:48.824Z,97443.55
2023-03-04T19:47:16.861Z,97440.20
2023-03-04T19:49:44.910Z,97444.70
2023-03-04T19:52:12.866Z,97445.77
2023-03-04T19:54:40.851Z,97444.06
2023-03-04T19:57:09.231Z,97446.39
2023-03-04T19:59:37.250Z,97444.37
2023-03-04T20:02:05.272Z,97449.02
2023-03-04T20:04:33.527Z,97447.53
2023-03-04T20:07:01.831Z,97451.45
2023-03-04T20:09:29.942Z,97449.73
2023-03-04T20:12:04.373Z,97450.66
2023-03-04T20:14:35.294Z,97456.66
2023-03-04T20:17:05.082Z,97450.31
2023-03-04T20:19:35.014Z,97449.75
2023-03-04T20:22:03.890Z,97445.31
2023-03-04T20:24:31.824Z,97445.49
2023-03-04T20:27:00.286Z,97440.95
2023-03-04T20:29:31.400Z,97435.70
2023-03-04T20:31:59.575Z,97447.63
2023-03-04T20:34:27.605Z,97453.52
2023-03-04T20:36:55.689Z,97447.85
2023-03-04T20:39:29.499Z,97452.98
2023-03-04T20:41:59.086Z,97451.36
2023-03-04T20:44:28.140Z,97453.42
2023-03-04T20:46:56.143Z,97452.05
2023-03-04T20:49:27.666Z,97448.48
2023-03-04T20:52:03.311Z,97447.32
2023-03-04T20:54:31.496Z,97444.80
2023-03-04T20:56:59.484Z,97443.70
2023-03-04T20:59:28.153Z,97442.66
2023-03-04T21:01:56.188Z,97435.57
2023-03-04T21:04:24.231Z,97439.14
2023-03-04T21:06:53.752Z,97437.96
2023-03-04T21:09:22.803Z,97438.80
2023-03-04T21:11:51.722Z,97435.87
2023-03-04T21:14:28.650Z,97438.53
2023-03-04T21:21:59.535Z,97444.18
2023-03-04T21:24:30.681Z,97466.22
2023-03-04T21:26:59.155Z,97465.45
2023-03-04T21:29:55.501Z,97473.92
2023-03-04T21:32:26.096Z,97478.98
2023-03-04T21:35:50.138Z,97482.85
2023-03-04T21:38:18.434Z,97485.56
2023-03-04T21:40:46.763Z,97477.01
2023-03-04T21:43:22.543Z,97477.70
2023-03-04T21:45:58.352Z,97478.04
2023-03-04T21:49:20.209Z,97469.11
2023-03-04T21:51:48.251Z,97470.98
2023-03-04T21:54:16.512Z,97471.61
2023-03-04T21:56:45.716Z,97465.91
2023-03-04T21:59:14.705Z,97472.73
2023-03-04T22:01:42.700Z,97465.48
2023-03-04T22:04:11.223Z,97466.23
2023-03-04T22:06:41.236Z,97469.19
2023-03-04T22:09:09.778Z,97470.66
2023-03-04T22:11:37.838Z,97469.33
2023-03-04T22:14:06.099Z,97464.92
2023-03-04T22:16:56.939Z,97458.58
2023-03-04T22:19:27.742Z,97459.44
2023-03-04T22:21:55.965Z,97456.60
2023-03-04T22:24:23.979Z,97451.50
2023-03-04T22:26:51.959Z,97450.86
2023-03-04T22:29:19.877Z,97449.61
2023-03-04T22:31:48.213Z,97450.80
2023-03-04T22:34:16.822Z,97446.14
2023-03-04T22:36:46.412Z,97444.06
2023-03-04T22:39:20.659Z,97448.52
2023-03-04T22:41:48.714Z,97446.93
2023-03-04T22:44:16.780Z,97447.91
2023-03-04T22:46:45.645Z,97451.00
2023-03-04T22:49:14.502Z,97454.13
2023-03-04T22:51:44.335Z,97456.60
2023-03-04T22:54:14.806Z,97461.55
2023-03-04T22:56:43.707Z,97459.59
2023-03-04T22:59:12.132Z,97460.58
2023-03-04T23:05:50.143Z,97465.95
2023-03-04T23:08:18.708Z,97465.08
2023-03-04T23:10:46.833Z,97470.97
2023-03-04T23:13:14.961Z,97474.45
2023-03-04T23:15:42.992Z,97474.36
2023-03-04T23:18:10.967Z,97476.25
2023-03-04T23:20:42.408Z,97476.92
2023-03-04T23:23:11.796Z,97475.45
2023-03-04T23:25:39.994Z,97476.03
2023-03-04T23:28:08.069Z,97470.73
2023-03-04T23:30:36.062Z,97471.71
2023-03-04T23:33:04.544Z,97473.94
2023-03-04T23:35:32.568Z,97474.59
2023-03-04T23:38:00.728Z,97479.88
2023-03-04T23:40:28.759Z,97482.75
2023-03-04T23:42:56.804Z,97481.55
2023-03-04T23:45:24.925Z,97482.31
2023-03-04T23:47:53.101Z,97481.85
2023-03-04T23:50:21.344Z,97482.87
2023-03-04T23:52:49.926Z,97482.35
2023-03-04T23:55:19.856Z,97482.84
2023-03-04T23:57:47.840Z,97482.90
